sensor_id;sensor_type;location;lat;lon;timestamp;pressure;altitude;pressure_sealevel;temperature;humidity
16664;BME280;8445;51.270;9.434;2023-05-29T00:01:25;99806.78;;;22.10;37.08
16664;BME280;8445;51.270;9.434;2023-05-29T00:03:51;99809.44;;;21.95;37.65
16664;BME280;8445;51.270;9.434;2023-05-29T00:06:18;99810.50;;;22.09;37.41
16664;BME280;8445;51.270;9.434;2023-05-29T00:08:45;99810.75;;;21.99;37.52
16664;BME280;8445;51.270;9.434;2023-05-29T00:11:10;99818.78;;;21.21;39.42
16664;BME280;8445;51.270;9.434;2023-05-29T00:13:36;99822.66;;;21.50;39.66
16664;BME280;8445;51.270;9.434;2023-05-29T00:16:02;99804.63;;;21.27;40.10
16664;BME280;8445;51.270;9.434;2023-05-29T00:18:29;99811.63;;;21.91;38.77
16664;BME280;8445;51.270;9.434;2023-05-29T00:20:54;99807.25;;;22.13;37.90
16664;BME280;8445;51.270;9.434;2023-05-29T00:23:21;99802.16;;;22.57;35.43
16664;BME280;8445;51.270;9.434;2023-05-29T00:25:47;99816.91;;;22.46;35.16
16664;BME280;8445;51.270;9.434;2023-05-29T00:28:12;99805.69;;;22.19;37.56
16664;BME280;8445;51.270;9.434;2023-05-29T00:30:39;99806.25;;;22.53;36.38
16664;BME280;8445;51.270;9.434;2023-05-29T00:33:04;99816.25;;;22.05;35.67
16664;BME280;8445;51.270;9.434;2023-05-29T00:35:31;99810.13;;;22.12;35.81
16664;BME280;8445;51.270;9.434;2023-05-29T00:37:57;99811.91;;;21.50;39.22
16664;BME280;8445;51.270;9.434;2023-05-29T00:40:23;99812.97;;;22.33;35.98
16664;BME280;8445;51.270;9.434;2023-05-29T00:42:48;99813.50;;;22.14;36.64
16664;BME280;8445;51.270;9.434;2023-05-29T00:45:14;99817.78;;;22.23;35.91
16664;BME280;8445;51.270;9.434;2023-05-29T00:47:43;99821.22;;;21.07;41.10
16664;BME280;8445;51.270;9.434;2023-05-29T00:50:10;99819.53;;;21.06;40.05
16664;BME280;8445;51.270;9.434;2023-05-29T00:52:40;99815.00;;;21.38;40.37
16664;BME280;8445;51.270;9.434;2023-05-29T00:55:07;99826.31;;;20.69;42.42
16664;BME280;8445;51.270;9.434;2023-05-29T00:57:36;99817.72;;;21.30;41.41
16664;BME280;8445;51.270;9.434;2023-05-29T01:00:04;99817.59;;;20.83;42.45
16664;BME280;8445;51.270;9.434;2023-05-29T01:02:31;99816.81;;;22.01;39.38
16664;BME280;8445;51.270;9.434;2023-05-29T01:04:57;99818.03;;;21.35;41.00
16664;BME280;8445;51.270;9.434;2023-05-29T01:07:22;99817.63;;;21.78;38.82
16664;BME280;8445;51.270;9.434;2023-05-29T01:09:48;99816.50;;;21.72;39.92
16664;BME280;8445;51.270;9.434;2023-05-29T01:12:23;99826.72;;;21.45;41.54
16664;BME280;8445;51.270;9.434;2023-05-29T01:17:44;99824.22;;;21.75;40.90
16664;BME280;8445;51.270;9.434;2023-05-29T01:20:27;99821.06;;;22.33;40.08
16664;BME280;8445;51.270;9.434;2023-05-29T01:23:24;99825.66;;;21.63;42.05
16664;BME280;8445;51.270;9.434;2023-05-29T01:28:57;99833.75;;;21.23;41.39
16664;BME280;8445;51.270;9.434;2023-05-29T01:31:26;99842.75;;;21.39;40.47
16664;BME280;8445;51.270;9.434;2023-05-29T01:33:58;99835.41;;;20.84;42.67
16664;BME280;8445;51.270;9.434;2023-05-29T01:36:25;99837.94;;;20.69;43.22
16664;BME280;8445;51.270;9.434;2023-05-29T01:38:53;99838.09;;;20.68;42.89
16664;BME280;8445;51.270;9.434;2023-05-29T01:41:21;99840.56;;;21.34;40.77
16664;BME280;8445;51.270;9.434;2023-05-29T01:43:49;99846.09;;;21.09;41.62
16664;BME280;8445;51.270;9.434;2023-05-29T01:46:18;99848.09;;;21.07;41.63
16664;BME280;8445;51.270;9.434;2023-05-29T01:48:45;99845.66;;;20.72;42.24
16664;BME280;8445;51.270;9.434;2023-05-29T01:51:11;99850.84;;;20.91;42.08
16664;BME280;8445;51.270;9.434;2023-05-29T01:53:38;99843.88;;;21.13;41.66
16664;BME280;8445;51.270;9.434;2023-05-29T01:56:08;99844.88;;;21.52;40.72
16664;BME280;8445;51.270;9.434;2023-05-29T01:58:35;99852.25;;;21.18;40.97
16664;BME280;8445;51.270;9.434;2023-05-29T02:01:04;99855.03;;;20.93;42.59
16664;BME280;8445;51.270;9.434;2023-05-29T02:03:29;99846.06;;;21.17;40.68
16664;BME280;8445;51.270;9.434;2023-05-29T02:05:59;99846.72;;;21.20;41.33
16664;BME280;8445;51.270;9.434;2023-05-29T02:08:25;99854.09;;;20.53;42.25
16664;BME280;8445;51.270;9.434;2023-05-29T02:10:50;99852.22;;;20.78;41.48
16664;BME280;8445;51.270;9.434;2023-05-29T02:13:16;99857.06;;;21.31;40.86
16664;BME280;8445;51.270;9.434;2023-05-29T02:15:42;99855.91;;;20.77;42.36
16664;BME280;8445;51.270;9.434;2023-05-29T02:18:10;99852.56;;;20.58;42.67
16664;BME280;8445;51.270;9.434;2023-05-29T02:20:37;99861.28;;;20.77;41.37
16664;BME280;8445;51.270;9.434;2023-05-29T02:23:03;99858.28;;;21.60;40.14
16664;BME280;8445;51.270;9.434;2023-05-29T02:25:28;99866.63;;;21.02;41.09
16664;BME280;8445;51.270;9.434;2023-05-29T02:27:54;99863.28;;;20.75;41.56
16664;BME280;8445;51.270;9.434;2023-05-29T02:30:20;99865.63;;;20.86;41.20
16664;BME280;8445;51.270;9.434;2023-05-29T02:32:46;99867.03;;;20.41;42.36
16664;BME280;8445;51.270;9.434;2023-05-29T02:35:12;99869.03;;;20.39;42.95
16664;BME280;8445;51.270;9.434;2023-05-29T02:37:40;99869.03;;;20.39;43.14
16664;BME280;8445;51.270;9.434;2023-05-29T02:40:06;99865.53;;;20.30;43.26
16664;BME280;8445;51.270;9.434;2023-05-29T02:42:33;99869.00;;;20.64;42.05
16664;BME280;8445;51.270;9.434;2023-05-29T02:44:58;99874.09;;;20.34;43.44
16664;BME280;8445;51.270;9.434;2023-05-29T02:47:24;99879.03;;;21.03;41.11
16664;BME280;8445;51.270;9.434;2023-05-29T02:49:50;99880.47;;;20.57;42.03
16664;BME280;8445;51.270;9.434;2023-05-29T02:52:16;99883.97;;;19.92;43.85
16664;BME280;8445;51.270;9.434;2023-05-29T02:54:41;99890.53;;;20.39;42.43
16664;BME280;8445;51.270;9.434;2023-05-29T02:57:07;99903.59;;;20.75;41.49
16664;BME280;8445;51.270;9.434;2023-05-29T02:59:32;99891.22;;;20.57;41.92
16664;BME280;8445;51.270;9.434;2023-05-29T03:01:57;99904.28;;;20.11;43.87
16664;BME280;8445;51.270;9.434;2023-05-29T03:04:23;99900.28;;;20.48;42.81
16664;BME280;8445;51.270;9.434;2023-05-29T03:06:48;99901.34;;;19.79;44.60
16664;BME280;8445;51.270;9.434;2023-05-29T03:09:14;99906.47;;;19.99;44.24
16664;BME280;8445;51.270;9.434;2023-05-29T03:11:41;99907.47;;;20.06;42.69
16664;BME280;8445;51.270;9.434;2023-05-29T03:14:08;99903.31;;;20.45;41.88
16664;BME280;8445;51.270;9.434;2023-05-29T03:16:34;99917.03;;;19.92;43.66
16664;BME280;8445;51.270;9.434;2023-05-29T03:19:01;99911.53;;;20.68;42.13
16664;BME280;8445;51.270;9.434;2023-05-29T03:21:27;99909.56;;;19.78;44.30
16664;BME280;8445;51.270;9.434;2023-05-29T03:23:52;99907.63;;;20.13;42.36
16664;BME280;8445;51.270;9.434;2023-05-29T03:26:18;99909.38;;;19.63;44.88
16664;BME280;8445;51.270;9.434;2023-05-29T03:28:44;99913.50;;;20.00;43.46
16664;BME280;8445;51.270;9.434;2023-05-29T03:31:10;99914.78;;;19.88;43.72
16664;BME280;8445;51.270;9.434;2023-05-29T03:33:36;99910.28;;;19.88;44.15
16664;BME280;8445;51.270;9.434;2023-05-29T03:36:12;99913.56;;;19.65;44.33
16664;BME280;8445;51.270;9.434;2023-05-29T03:38:39;99908.13;;;20.00;43.43
16664;BME280;8445;51.270;9.434;2023-05-29T03:41:05;99923.75;;;20.05;43.17
16664;BME280;8445;51.270;9.434;2023-05-29T03:43:31;99915.22;;;20.34;42.75
16664;BME280;8445;51.270;9.434;2023-05-29T03:45:57;99910.34;;;20.21;42.96
16664;BME280;8445;51.270;9.434;2023-05-29T03:48:23;99916.88;;;20.35;42.13
16664;BME280;8445;51.270;9.434;2023-05-29T03:50:49;99914.06;;;20.53;42.14
16664;BME280;8445;51.270;9.434;2023-05-29T03:53:20;99910.19;;;20.64;41.70
16664;BME280;8445;51.270;9.434;2023-05-29T03:55:45;99915.41;;;20.41;42.35
16664;BME280;8445;51.270;9.434;2023-05-29T03:58:11;99922.63;;;19.73;44.43
16664;BME280;8445;51.270;9.434;2023-05-29T04:00:38;99909.53;;;20.29;42.32
16664;BME280;8445;51.270;9.434;2023-05-29T04:03:04;99921.75;;;20.23;42.60
16664;BME280;8445;51.270;9.434;2023-05-29T04:05:29;99916.03;;;20.18;42.89
16664;BME280;8445;51.270;9.434;2023-05-29T04:07:56;99916.72;;;20.37;42.51
16664;BME280;8445;51.270;9.434;2023-05-29T04:10:22;99924.28;;;20.25;43.75
16664;BME280;8445;51.270;9.434;2023-05-29T04:12:49;99927.97;;;20.49;42.28
16664;BME280;8445;51.270;9.434;2023-05-29T04:15:14;99929.16;;;20.29;42.90
16664;BME280;8445;51.270;9.434;2023-05-29T04:17:40;99937.88;;;20.98;41.36
16664;BME280;8445;51.270;9.434;2023-05-29T04:20:06;99931.34;;;20.67;42.02
16664;BME280;8445;51.270;9.434;2023-05-29T04:22:35;99936.56;;;20.94;41.95
16664;BME280;8445;51.270;9.434;2023-05-29T04:25:01;99940.25;;;20.43;43.18
16664;BME280;8445;51.270;9.434;2023-05-29T04:27:32;99943.63;;;20.45;43.02
16664;BME280;8445;51.270;9.434;2023-05-29T04:30:07;99947.31;;;20.94;42.59
16664;BME280;8445;51.270;9.434;2023-05-29T04:32:37;99950.47;;;20.39;42.92
16664;BME280;8445;51.270;9.434;2023-05-29T04:35:03;99950.69;;;20.79;42.38
16664;BME280;8445;51.270;9.434;2023-05-29T04:37:32;99955.34;;;20.69;42.49
16664;BME280;8445;51.270;9.434;2023-05-29T04:42:35;99965.44;;;20.42;42.99
16664;BME280;8445;51.270;9.434;2023-05-29T04:45:01;99958.41;;;20.49;43.18
16664;BME280;8445;51.270;9.434;2023-05-29T04:47:26;99948.63;;;21.54;41.11
16664;BME280;8445;51.270;9.434;2023-05-29T04:49:53;99959.66;;;21.28;41.40
16664;BME280;8445;51.270;9.434;2023-05-29T04:52:19;99962.28;;;21.53;40.91
16664;BME280;8445;51.270;9.434;2023-05-29T04:54:46;99965.38;;;22.13;39.72
16664;BME280;8445;51.270;9.434;2023-05-29T04:57:13;99974.00;;;21.12;41.89
16664;BME280;8445;51.270;9.434;2023-05-29T04:59:39;99976.03;;;21.74;40.63
16664;BME280;8445;51.270;9.434;2023-05-29T05:02:04;99972.16;;;21.12;42.49
16664;BME280;8445;51.270;9.434;2023-05-29T05:04:31;99971.09;;;21.22;41.92
16664;BME280;8445;51.270;9.434;2023-05-29T05:06:57;99971.94;;;21.39;41.71
16664;BME280;8445;51.270;9.434;2023-05-29T05:09:23;99974.41;;;21.48;41.33
16664;BME280;8445;51.270;9.434;2023-05-29T05:11:49;99976.19;;;22.04;40.32
16664;BME280;8445;51.270;9.434;2023-05-29T05:14:17;99979.00;;;21.40;41.79
16664;BME280;8445;51.270;9.434;2023-05-29T05:16:42;99972.41;;;22.69;38.88
16664;BME280;8445;51.270;9.434;2023-05-29T05:19:09;99972.84;;;21.54;41.79
16664;BME280;8445;51.270;9.434;2023-05-29T05:21:37;99979.16;;;22.49;39.35
16664;BME280;8445;51.270;9.434;2023-05-29T05:24:03;99989.31;;;20.86;42.77
16664;BME280;8445;51.270;9.434;2023-05-29T05:26:29;100001.59;;;20.89;42.58
16664;BME280;8445;51.270;9.434;2023-05-29T05:28:54;99997.53;;;20.60;42.85
16664;BME280;8445;51.270;9.434;2023-05-29T05:31:23;100001.56;;;20.72;43.03
16664;BME280;8445;51.270;9.434;2023-05-29T05:33:48;100000.22;;;20.77;42.75
16664;BME280;8445;51.270;9.434;2023-05-29T05:36:14;99999.28;;;21.59;41.47
16664;BME280;8445;51.270;9.434;2023-05-29T05:38:40;99999.78;;;21.54;40.98
16664;BME280;8445;51.270;9.434;2023-05-29T05:41:06;99998.84;;;22.42;39.77
16664;BME280;8445;51.270;9.434;2023-05-29T05:43:32;100007.22;;;22.24;40.13
16664;BME280;8445;51.270;9.434;2023-05-29T05:46:11;100007.13;;;22.17;40.15
16664;BME280;8445;51.270;9.434;2023-05-29T05:48:39;100006.16;;;22.10;40.29
16664;BME280;8445;51.270;9.434;2023-05-29T05:51:08;100003.69;;;21.43;41.43
16664;BME280;8445;51.270;9.434;2023-05-29T05:53:33;99996.72;;;21.74;40.77
16664;BME280;8445;51.270;9.434;2023-05-29T05:55:59;100002.00;;;21.51;41.45
16664;BME280;8445;51.270;9.434;2023-05-29T05:58:25;100009.47;;;22.20;40.29
16664;BME280;8445;51.270;9.434;2023-05-29T06:00:50;100014.25;;;21.53;41.27
16664;BME280;8445;51.270;9.434;2023-05-29T06:03:18;100015.69;;;20.74;43.04
16664;BME280;8445;51.270;9.434;2023-05-29T06:05:57;100011.13;;;21.25;42.30
16664;BME280;8445;51.270;9.434;2023-05-29T06:08:23;100011.00;;;22.14;40.15
16664;BME280;8445;51.270;9.434;2023-05-29T06:10:50;100018.34;;;21.41;41.50
16664;BME280;8445;51.270;9.434;2023-05-29T06:13:15;100021.78;;;22.46;39.62
16664;BME280;8445;51.270;9.434;2023-05-29T06:15:47;100016.81;;;21.46;41.52
16664;BME280;8445;51.270;9.434;2023-05-29T06:18:13;100019.06;;;22.69;39.29
16664;BME280;8445;51.270;9.434;2023-05-29T06:20:38;100017.31;;;23.00;38.62
16664;BME280;8445;51.270;9.434;2023-05-29T06:23:04;100016.38;;;22.46;39.82
16664;BME280;8445;51.270;9.434;2023-05-29T06:25:30;100031.91;;;22.44;40.09
16664;BME280;8445;51.270;9.434;2023-05-29T06:28:02;100033.75;;;22.43;39.61
16664;BME280;8445;51.270;9.434;2023-05-29T06:30:28;100026.38;;;22.37;39.89
16664;BME280;8445;51.270;9.434;2023-05-29T06:32:54;100032.97;;;22.34;40.36
16664;BME280;8445;51.270;9.434;2023-05-29T06:35:25;100027.81;;;22.71;39.21
16664;BME280;8445;51.270;9.434;2023-05-29T06:37:51;100045.53;;;22.11;40.57
16664;BME280;8445;51.270;9.434;2023-05-29T06:40:16;100036.41;;;21.80;41.24
16664;BME280;8445;51.270;9.434;2023-05-29T06:42:43;100025.25;;;22.78;39.62
16664;BME280;8445;51.270;9.434;2023-05-29T06:45:14;100025.41;;;23.38;38.44
16664;BME280;8445;51.270;9.434;2023-05-29T06:47:41;100030.66;;;21.91;40.98
16664;BME280;8445;51.270;9.434;2023-05-29T06:50:08;100028.56;;;21.70;41.75
16664;BME280;8445;51.270;9.434;2023-05-29T06:52:34;100032.53;;;21.83;41.82
16664;BME280;8445;51.270;9.434;2023-05-29T06:55:19;100037.91;;;21.83;41.77
16664;BME280;8445;51.270;9.434;2023-05-29T06:57:44;100039.09;;;22.20;41.04
16664;BME280;8445;51.270;9.434;2023-05-29T07:00:11;100040.44;;;22.24;40.83
16664;BME280;8445;51.270;9.434;2023-05-29T07:02:42;100032.75;;;23.29;39.02
16664;BME280;8445;51.270;9.434;2023-05-29T07:05:07;100032.78;;;22.36;41.06
16664;BME280;8445;51.270;9.434;2023-05-29T07:07:35;100037.28;;;23.14;39.68
16664;BME280;8445;51.270;9.434;2023-05-29T07:10:00;100030.91;;;23.30;39.01
16664;BME280;8445;51.270;9.434;2023-05-29T07:12:26;100037.50;;;23.04;40.12
16664;BME280;8445;51.270;9.434;2023-05-29T07:14:52;100029.94;;;23.22;39.39
16664;BME280;8445;51.270;9.434;2023-05-29T07:17:17;100040.50;;;23.77;38.66
16664;BME280;8445;51.270;9.434;2023-05-29T07:19:43;100037.88;;;21.91;42.09
16664;BME280;8445;51.270;9.434;2023-05-29T07:22:12;100037.97;;;22.92;40.40
16664;BME280;8445;51.270;9.434;2023-05-29T07:24:37;100046.13;;;22.61;41.10
16664;BME280;8445;51.270;9.434;2023-05-29T07:27:04;100042.03;;;22.88;40.86
16664;BME280;8445;51.270;9.434;2023-05-29T07:29:31;100047.53;;;22.95;40.59
16664;BME280;8445;51.270;9.434;2023-05-29T07:31:56;100047.31;;;22.58;41.21
16664;BME280;8445;51.270;9.434;2023-05-29T07:34:24;100057.63;;;23.84;38.94
16664;BME280;8445;51.270;9.434;2023-05-29T07:37:01;100053.72;;;23.42;40.06
16664;BME280;8445;51.270;9.434;2023-05-29T07:39:27;100051.03;;;22.57;41.45
16664;BME280;8445;51.270;9.434;2023-05-29T07:41:53;100045.19;;;23.53;39.97
16664;BME280;8445;51.270;9.434;2023-05-29T07:44:19;100057.47;;;23.18;40.43
16664;BME280;8445;51.270;9.434;2023-05-29T07:46:45;100049.28;;;24.09;39.41
16664;BME280;8445;51.270;9.434;2023-05-29T07:49:27;100055.44;;;23.20;40.05
16664;BME280;8445;51.270;9.434;2023-05-29T07:51:53;100045.88;;;23.92;39.84
16664;BME280;8445;51.270;9.434;2023-05-29T07:54:19;100046.28;;;23.44;40.38
16664;BME280;8445;51.270;9.434;2023-05-29T07:56:46;100036.31;;;24.05;39.67
16664;BME280;8445;51.270;9.434;2023-05-29T07:59:12;100040.25;;;24.24;39.38
16664;BME280;8445;51.270;9.434;2023-05-29T08:01:38;100048.72;;;24.73;39.03
16664;BME280;8445;51.270;9.434;2023-05-29T08:04:05;100053.22;;;24.87;38.44
16664;BME280;8445;51.270;9.434;2023-05-29T08:06:31;100051.84;;;24.18;39.75
16664;BME280;8445;51.270;9.434;2023-05-29T08:08:58;100054.66;;;24.46;39.25
16664;BME280;8445;51.270;9.434;2023-05-29T08:11:24;100059.19;;;25.33;39.07
16664;BME280;8445;51.270;9.434;2023-05-29T08:13:50;100053.34;;;25.51;37.85
16664;BME280;8445;51.270;9.434;2023-05-29T08:16:17;100056.88;;;25.86;37.96
16664;BME280;8445;51.270;9.434;2023-05-29T08:18:42;100065.31;;;26.12;37.65
16664;BME280;8445;51.270;9.434;2023-05-29T08:21:08;100049.47;;;25.10;37.85
16664;BME280;8445;51.270;9.434;2023-05-29T08:23:35;100051.13;;;25.68;37.63
16664;BME280;8445;51.270;9.434;2023-05-29T08:26:01;100045.03;;;26.63;36.42
16664;BME280;8445;51.270;9.434;2023-05-29T08:28:28;100051.00;;;26.25;37.84
16664;BME280;8445;51.270;9.434;2023-05-29T08:30:53;100056.91;;;26.62;35.68
16664;BME280;8445;51.270;9.434;2023-05-29T08:33:19;100048.63;;;27.11;36.48
16664;BME280;8445;51.270;9.434;2023-05-29T08:35:44;100046.94;;;27.23;35.92
16664;BME280;8445;51.270;9.434;2023-05-29T08:38:10;100046.91;;;26.62;35.83
16664;BME280;8445;51.270;9.434;2023-05-29T08:40:36;100047.84;;;26.21;37.55
16664;BME280;8445;51.270;9.434;2023-05-29T08:43:23;100035.94;;;26.15;35.30
16664;BME280;8445;51.270;9.434;2023-05-29T08:45:55;100044.44;;;25.64;37.12
16664;BME280;8445;51.270;9.434;2023-05-29T08:48:24;100047.38;;;27.20;35.11
16664;BME280;8445;51.270;9.434;2023-05-29T08:50:52;100054.72;;;26.17;36.13
16664;BME280;8445;51.270;9.434;2023-05-29T08:53:18;100050.25;;;26.64;36.06
16664;BME280;8445;51.270;9.434;2023-05-29T08:55:45;100059.31;;;26.16;35.94
16664;BME280;8445;51.270;9.434;2023-05-29T08:58:13;100068.44;;;25.73;36.36
16664;BME280;8445;51.270;9.434;2023-05-29T09:00:39;100058.56;;;26.01;36.73
16664;BME280;8445;51.270;9.434;2023-05-29T09:03:06;100053.88;;;26.92;35.26
16664;BME280;8445;51.270;9.434;2023-05-29T09:05:32;100063.66;;;27.47;34.46
16664;BME280;8445;51.270;9.434;2023-05-29T09:07:59;100066.06;;;26.34;36.03
16664;BME280;8445;51.270;9.434;2023-05-29T09:10:24;100060.09;;;26.10;36.21
16664;BME280;8445;51.270;9.434;2023-05-29T09:12:53;100059.84;;;26.05;36.28
16664;BME280;8445;51.270;9.434;2023-05-29T09:15:22;100052.75;;;26.59;35.10
16664;BME280;8445;51.270;9.434;2023-05-29T09:17:52;100049.66;;;27.23;33.84
16664;BME280;8445;51.270;9.434;2023-05-29T09:20:20;100044.22;;;27.36;35.13
16664;BME280;8445;51.270;9.434;2023-05-29T09:23:00;100057.78;;;26.62;34.73
16664;BME280;8445;51.270;9.434;2023-05-29T09:25:27;100043.91;;;26.24;35.13
16664;BME280;8445;51.270;9.434;2023-05-29T09:27:55;100058.31;;;25.82;35.64
16664;BME280;8445;51.270;9.434;2023-05-29T09:33:07;100053.22;;;27.37;34.52
16664;BME280;8445;51.270;9.434;2023-05-29T09:35:44;100065.69;;;26.64;34.32
16664;BME280;8445;51.270;9.434;2023-05-29T09:38:15;100066.97;;;26.75;34.36
16664;BME280;8445;51.270;9.434;2023-05-29T09:40:44;100063.50;;;26.26;35.04
16664;BME280;8445;51.270;9.434;2023-05-29T09:43:14;100062.56;;;26.67;34.77
16664;BME280;8445;51.270;9.434;2023-05-29T09:45:46;100065.66;;;27.85;34.85
16664;BME280;8445;51.270;9.434;2023-05-29T09:48:16;100066.19;;;27.55;33.40
16664;BME280;8445;51.270;9.434;2023-05-29T09:50:44;100062.81;;;27.46;34.57
16664;BME280;8445;51.270;9.434;2023-05-29T09:53:20;100050.69;;;27.62;34.22
16664;BME280;8445;51.270;9.434;2023-05-29T09:55:48;100059.28;;;26.85;35.35
16664;BME280;8445;51.270;9.434;2023-05-29T09:58:17;100061.16;;;26.91;34.24
16664;BME280;8445;51.270;9.434;2023-05-29T10:00:43;100052.22;;;28.04;33.50
16664;BME280;8445;51.270;9.434;2023-05-29T10:03:10;100053.44;;;28.21;32.50
16664;BME280;8445;51.270;9.434;2023-05-29T10:05:37;100056.41;;;28.52;33.20
16664;BME280;8445;51.270;9.434;2023-05-29T10:08:05;100048.34;;;29.47;32.44
16664;BME280;8445;51.270;9.434;2023-05-29T10:10:34;100052.69;;;27.94;34.13
16664;BME280;8445;51.270;9.434;2023-05-29T10:13:02;100041.84;;;29.66;31.97
16664;BME280;8445;51.270;9.434;2023-05-29T10:15:30;100040.16;;;28.70;32.94
16664;BME280;8445;51.270;9.434;2023-05-29T10:18:05;100038.69;;;28.36;32.12
16664;BME280;8445;51.270;9.434;2023-05-29T10:20:35;100038.06;;;29.67;31.58
16664;BME280;8445;51.270;9.434;2023-05-29T10:23:01;100039.84;;;28.21;33.75
16664;BME280;8445;51.270;9.434;2023-05-29T10:25:29;100047.88;;;29.06;33.32
16664;BME280;8445;51.270;9.434;2023-05-29T10:27:57;100033.84;;;28.45;33.13
16664;BME280;8445;51.270;9.434;2023-05-29T10:30:29;100035.44;;;28.20;32.83
16664;BME280;8445;51.270;9.434;2023-05-29T10:35:53;100030.06;;;29.03;33.43
16664;BME280;8445;51.270;9.434;2023-05-29T10:38:20;100042.81;;;29.09;31.81
16664;BME280;8445;51.270;9.434;2023-05-29T10:40:46;100035.91;;;29.32;32.49
16664;BME280;8445;51.270;9.434;2023-05-29T10:43:32;100036.38;;;28.78;32.32
16664;BME280;8445;51.270;9.434;2023-05-29T10:45:58;100032.53;;;28.15;33.46
16664;BME280;8445;51.270;9.434;2023-05-29T10:50:55;100032.69;;;28.27;32.62
16664;BME280;8445;51.270;9.434;2023-05-29T10:53:30;100028.19;;;29.48;31.78
16664;BME280;8445;51.270;9.434;2023-05-29T10:55:56;100026.84;;;28.23;33.23
16664;BME280;8445;51.270;9.434;2023-05-29T10:58:25;100025.81;;;29.33;32.64
16664;BME280;8445;51.270;9.434;2023-05-29T11:00:52;100028.88;;;29.80;31.76
16664;BME280;8445;51.270;9.434;2023-05-29T11:03:31;100024.56;;;29.54;32.00
16664;BME280;8445;51.270;9.434;2023-05-29T11:05:57;100038.78;;;28.87;32.89
16664;BME280;8445;51.270;9.434;2023-05-29T11:08:32;100038.56;;;28.56;32.44
16664;BME280;8445;51.270;9.434;2023-05-29T11:10:58;100044.06;;;28.49;33.46
16664;BME280;8445;51.270;9.434;2023-05-29T11:13:25;100033.16;;;29.32;32.39
16664;BME280;8445;51.270;9.434;2023-05-29T11:16:10;100029.69;;;29.25;31.27
16664;BME280;8445;51.270;9.434;2023-05-29T11:18:45;100029.56;;;28.88;32.61
16664;BME280;8445;51.270;9.434;2023-05-29T11:23:50;100034.59;;;29.41;32.55
16664;BME280;8445;51.270;9.434;2023-05-29T11:26:17;100020.78;;;29.55;32.24
16664;BME280;8445;51.270;9.434;2023-05-29T11:28:43;100028.44;;;30.02;30.99
16664;BME280;8445;51.270;9.434;2023-05-29T11:31:08;100017.94;;;30.48;31.46
16664;BME280;8445;51.270;9.434;2023-05-29T11:33:39;100024.81;;;30.81;30.97
16664;BME280;8445;51.270;9.434;2023-05-29T11:36:05;100027.53;;;30.39;31.92
16664;BME280;8445;51.270;9.434;2023-05-29T11:38:31;100022.75;;;30.65;31.76
16664;BME280;8445;51.270;9.434;2023-05-29T11:40:57;100012.59;;;32.37;29.71
16664;BME280;8445;51.270;9.434;2023-05-29T11:43:24;100012.28;;;32.67;29.06
16664;BME280;8445;51.270;9.434;2023-05-29T11:45:50;99996.78;;;32.27;30.46
16664;BME280;8445;51.270;9.434;2023-05-29T11:48:15;100009.44;;;31.87;29.62
16664;BME280;8445;51.270;9.434;2023-05-29T11:50:41;100001.78;;;31.25;31.83
16664;BME280;8445;51.270;9.434;2023-05-29T11:53:07;99996.84;;;32.61;29.96
16664;BME280;8445;51.270;9.434;2023-05-29T11:55:33;99992.25;;;32.33;28.93
16664;BME280;8445;51.270;9.434;2023-05-29T11:58:00;100006.00;;;33.01;29.04
16664;BME280;8445;51.270;9.434;2023-05-29T12:00:30;100011.59;;;30.24;31.07
16664;BME280;8445;51.270;9.434;2023-05-29T12:02:58;100011.28;;;30.44;31.34
16664;BME280;8445;51.270;9.434;2023-05-29T12:05:24;100009.00;;;30.71;30.58
16664;BME280;8445;51.270;9.434;2023-05-29T12:07:56;100000.84;;;31.43;29.70
16664;BME280;8445;51.270;9.434;2023-05-29T12:10:22;100004.59;;;32.06;29.68
16664;BME280;8445;51.270;9.434;2023-05-29T12:12:49;99993.69;;;31.54;30.63
16664;BME280;8445;51.270;9.434;2023-05-29T12:15:15;100004.88;;;29.89;31.44
16664;BME280;8445;51.270;9.434;2023-05-29T12:17:43;100012.88;;;30.64;31.45
16664;BME280;8445;51.270;9.434;2023-05-29T12:20:10;100015.09;;;29.94;31.79
16664;BME280;8445;51.270;9.434;2023-05-29T12:22:37;100017.34;;;30.46;30.35
16664;BME280;8445;51.270;9.434;2023-05-29T12:25:05;100001.09;;;30.51;30.85
16664;BME280;8445;51.270;9.434;2023-05-29T12:27:32;99998.38;;;31.29;29.97
16664;BME280;8445;51.270;9.434;2023-05-29T12:30:01;100006.09;;;31.20;30.24
16664;BME280;8445;51.270;9.434;2023-05-29T12:32:40;100012.81;;;30.40;30.26
16664;BME280;8445;51.270;9.434;2023-05-29T12:37:57;99996.78;;;32.27;28.83
16664;BME280;8445;51.270;9.434;2023-05-29T12:40:27;100009.03;;;31.31;29.32
16664;BME280;8445;51.270;9.434;2023-05-29T12:42:58;100018.13;;;30.65;30.19
16664;BME280;8445;51.270;9.434;2023-05-29T12:45:29;100010.22;;;31.11;30.10
16664;BME280;8445;51.270;9.434;2023-05-29T12:48:02;100008.88;;;30.78;29.77
16664;BME280;8445;51.270;9.434;2023-05-29T12:50:29;100014.66;;;32.30;28.59
16664;BME280;8445;51.270;9.434;2023-05-29T12:53:06;100020.47;;;32.33;29.00
16664;BME280;8445;51.270;9.434;2023-05-29T12:55:36;100013.69;;;31.30;30.37
16664;BME280;8445;51.270;9.434;2023-05-29T12:58:03;100003.91;;;30.99;30.46
16664;BME280;8445;51.270;9.434;2023-05-29T13:00:29;100011.41;;;31.15;29.82
16664;BME280;8445;51.270;9.434;2023-05-29T13:02:55;100009.13;;;30.88;30.69
16664;BME280;8445;51.270;9.434;2023-05-29T13:05:21;100008.53;;;30.74;30.59
16664;BME280;8445;51.270;9.434;2023-05-29T13:07:50;100003.19;;;30.91;30.26
16664;BME280;8445;51.270;9.434;2023-05-29T13:10:19;100005.59;;;31.00;30.12
16664;BME280;8445;51.270;9.434;2023-05-29T13:12:45;100018.41;;;31.59;30.10
16664;BME280;8445;51.270;9.434;2023-05-29T13:15:12;100015.56;;;31.06;30.30
16664;BME280;8445;51.270;9.434;2023-05-29T13:17:39;100007.94;;;30.84;30.49
16664;BME280;8445;51.270;9.434;2023-05-29T13:20:11;99999.16;;;32.35;28.72
16664;BME280;8445;51.270;9.434;2023-05-29T13:22:39;100002.06;;;32.17;29.32
16664;BME280;8445;51.270;9.434;2023-05-29T13:25:06;100007.56;;;31.52;29.47
16664;BME280;8445;51.270;9.434;2023-05-29T13:27:33;100002.47;;;30.84;29.85
16664;BME280;8445;51.270;9.434;2023-05-29T13:30:00;100003.06;;;31.58;29.60